Time;durP1;ratioP1;P1;durP2;ratioP2;P2;SDS_P1;SDS_P2;PMS_P1;PMS_P2;Temp;Humidity;BMP_temperature;BMP_pressure;BME280_temperature;BME280_humidity;BME280_pressure;Samples;Min_cycle;Max_cycle;Signal;HPM_P1;HPM_P2
2023/06/06 00:02:07;;;;;;;4.90;2.65;;;18.70;99.90;;;;;;5028969;28;20116;-69
2023/06/06 00:04:32;;;;;;;6.18;2.70;;;18.70;99.90;;;;;;5033020;28;20370;-69
2023/06/06 00:06:58;;;;;;;5.45;2.75;;;18.60;99.90;;;;;;5027505;28;20025;-70
2023/06/06 00:09:24;;;;;;;4.53;2.70;;;18.70;99.90;;;;;;5024443;28;20064;-68
2023/06/06 00:11:50;;;;;;;5.55;3.13;;;18.70;99.90;;;;;;5032137;28;20374;-65
2023/06/06 00:14:18;;;;;;;4.32;3.10;;;18.70;99.90;;;;;;5028273;28;20547;-64
2023/06/06 00:16:48;;;;;;;5.70;3.03;;;18.70;99.90;;;;;;5029256;28;20025;-65
2023/06/06 00:19:20;;;;;;;8.45;2.72;;;18.70;99.90;;;;;;5027709;28;20056;-65
2023/06/06 00:21:46;;;;;;;4.93;2.45;;;18.70;99.90;;;;;;5025548;28;20549;-64
2023/06/06 00:24:12;;;;;;;6.80;3.00;;;18.70;99.90;;;;;;5026184;28;20038;-65
2023/06/06 00:26:37;;;;;;;5.32;2.72;;;18.70;99.90;;;;;;5026007;28;20032;-65
2023/06/06 00:29:03;;;;;;;6.35;2.83;;;18.70;99.90;;;;;;5027346;28;20484;-64
2023/06/06 00:31:29;;;;;;;7.32;3.28;;;18.70;99.90;;;;;;5028893;28;20036;-69
2023/06/06 00:33:55;;;;;;;8.40;3.10;;;18.70;99.90;;;;;;5030679;28;20163;-68
2023/06/06 00:36:20;;;;;;;5.47;3.40;;;18.60;99.90;;;;;;5028467;28;20029;-68
2023/06/06 00:38:47;;;;;;;6.30;3.28;;;18.60;99.90;;;;;;5033519;28;20040;-69
2023/06/06 00:41:13;;;;;;;5.10;3.63;;;18.50;99.90;;;;;;5029611;28;20601;-69
2023/06/06 00:43:39;;;;;;;5.55;3.17;;;18.50;99.90;;;;;;5034939;28;20037;-68
2023/06/06 00:46:05;;;;;;;7.13;3.33;;;18.50;99.90;;;;;;5030443;28;20021;-68
2023/06/06 00:48:32;;;;;;;4.90;3.17;;;18.50;99.90;;;;;;5033845;28;20085;-67
2023/06/06 00:50:59;;;;;;;5.28;3.22;;;18.50;99.90;;;;;;5031440;28;20530;-68
2023/06/06 00:53:25;;;;;;;5.35;3.60;;;18.50;99.90;;;;;;5034298;28;20033;-68
2023/06/06 00:55:52;;;;;;;5.30;3.85;;;18.60;99.90;;;;;;5034006;28;20036;-68
2023/06/06 00:58:18;;;;;;;5.88;3.75;;;18.50;99.90;;;;;;5029921;28;20024;-67
2023/06/06 01:00:46;;;;;;;5.90;3.65;;;18.50;99.90;;;;;;5030175;28;20033;-68
2023/06/06 01:03:14;;;;;;;5.25;3.17;;;18.40;99.90;;;;;;5031862;28;20677;-68
2023/06/06 01:05:40;;;;;;;7.47;3.90;;;18.40;99.90;;;;;;5034678;28;20075;-68
2023/06/06 01:08:06;;;;;;;3.90;2.88;;;18.30;99.90;;;;;;5030796;28;20434;-64
2023/06/06 01:10:34;;;;;;;6.35;3.53;;;18.30;99.90;;;;;;5026128;28;20083;-63
2023/06/06 01:13:16;;;;;;;5.05;3.45;;;18.20;99.90;;;;;;5030308;28;20051;-64
2023/06/06 01:15:51;;;;;;;4.83;3.53;;;18.20;99.90;;;;;;5028036;28;20229;-64
2023/06/06 01:18:18;;;;;;;9.00;4.82;;;18.20;99.90;;;;;;5029844;28;20112;-64
2023/06/06 01:20:44;;;;;;;6.00;4.00;;;18.20;99.90;;;;;;5031209;28;20315;-63
2023/06/06 01:23:10;;;;;;;4.65;3.67;;;18.10;99.90;;;;;;5031577;28;20083;-68
2023/06/06 01:25:37;;;;;;;5.65;3.90;;;18.10;99.90;;;;;;5025904;28;20350;-68
2023/06/06 01:28:04;;;;;;;5.65;3.95;;;18.00;99.90;;;;;;5029362;28;20045;-64
2023/06/06 01:30:32;;;;;;;4.65;3.33;;;18.00;99.90;;;;;;5031209;28;20099;-64
2023/06/06 01:33:18;;;;;;;6.82;4.00;;;18.00;99.90;;;;;;5028388;28;20108;-64
2023/06/06 01:36:03;;;;;;;6.68;4.45;;;18.00;99.90;;;;;;5024509;28;20053;-64
2023/06/06 01:38:38;;;;;;;6.75;4.65;;;18.00;99.90;;;;;;5025705;28;20040;-64
2023/06/06 01:41:04;;;;;;;4.78;3.92;;;18.00;99.90;;;;;;5026986;28;20079;-64
2023/06/06 01:43:32;;;;;;;5.10;4.15;;;18.00;99.90;;;;;;5030806;28;20054;-64
2023/06/06 01:45:59;;;;;;;4.80;3.60;;;17.90;99.90;;;;;;5023369;28;20029;-64
2023/06/06 01:48:25;;;;;;;5.63;3.92;;;17.90;99.90;;;;;;5029787;28;20349;-64
2023/06/06 01:50:52;;;;;;;7.43;3.90;;;17.90;99.90;;;;;;5029867;28;20094;-64
2023/06/06 01:53:17;;;;;;;5.95;3.53;;;17.90;99.90;;;;;;5027772;28;20103;-64
2023/06/06 01:55:43;;;;;;;8.00;4.72;;;17.90;99.90;;;;;;5027976;28;20036;-63
2023/06/06 01:58:09;;;;;;;7.95;4.15;;;17.90;99.90;;;;;;5027904;28;20377;-63
2023/06/06 02:00:34;;;;;;;8.45;4.43;;;17.90;99.90;;;;;;5029485;28;20489;-64
2023/06/06 02:03:02;;;;;;;6.55;4.50;;;17.90;99.90;;;;;;5031929;28;20481;-63
2023/06/06 02:05:27;;;;;;;5.90;3.60;;;17.90;99.90;;;;;;5032501;28;20033;-68
2023/06/06 02:07:53;;;;;;;4.15;3.75;;;17.90;99.90;;;;;;5027794;28;20098;-68
2023/06/06 02:10:19;;;;;;;6.15;3.50;;;17.90;99.90;;;;;;5024079;28;20018;-68
2023/06/06 02:12:45;;;;;;;4.78;4.25;;;17.80;99.90;;;;;;5029170;28;20028;-68
2023/06/06 02:15:11;;;;;;;9.25;4.13;;;17.90;99.90;;;;;;5031560;28;20044;-68
2023/06/06 02:17:36;;;;;;;6.85;4.38;;;17.80;99.90;;;;;;5029242;28;20037;-68
2023/06/06 02:20:06;;;;;;;7.10;4.07;;;17.70;99.90;;;;;;5033376;28;20033;-68
2023/06/06 02:22:32;;;;;;;5.65;4.15;;;17.70;99.90;;;;;;5030820;28;20053;-68
2023/06/06 02:24:59;;;;;;;7.82;4.07;;;17.70;99.90;;;;;;5019828;28;20079;-64
2023/06/06 02:27:26;;;;;;;4.55;3.47;;;17.70;99.90;;;;;;5032528;28;20035;-64
2023/06/06 02:29:51;;;;;;;4.97;3.63;;;17.70;99.90;;;;;;5029985;28;20489;-64
2023/06/06 02:32:17;;;;;;;6.43;3.13;;;17.70;99.90;;;;;;5029626;28;20029;-64
2023/06/06 02:34:42;;;;;;;5.63;4.00;;;17.70;99.90;;;;;;5028941;28;20558;-64
2023/06/06 02:37:08;;;;;;;4.32;3.30;;;17.70;99.90;;;;;;5031276;28;20064;-64
2023/06/06 02:39:35;;;;;;;3.42;3.08;;;17.80;99.90;;;;;;5027792;28;20033;-64
2023/06/06 02:42:01;;;;;;;3.63;3.20;;;17.80;99.90;;;;;;5023959;28;20081;-64
2023/06/06 02:44:27;;;;;;;4.90;2.97;;;17.80;99.90;;;;;;5024472;28;20539;-64
2023/06/06 02:46:52;;;;;;;5.85;3.45;;;17.80;99.90;;;;;;5021955;28;20123;-64
2023/06/06 02:49:18;;;;;;;3.95;3.53;;;17.90;99.90;;;;;;5028565;28;20037;-64
2023/06/06 02:51:44;;;;;;;3.55;3.22;;;17.90;99.90;;;;;;5029837;28;20140;-64
2023/06/06 02:54:10;;;;;;;4.65;3.25;;;17.90;99.90;;;;;;5032410;28;20493;-64
2023/06/06 02:56:35;;;;;;;5.30;3.35;;;17.90;99.90;;;;;;5033249;28;20017;-64
2023/06/06 02:59:01;;;;;;;3.33;3.03;;;17.90;99.90;;;;;;5029594;28;20032;-64
2023/06/06 03:01:30;;;;;;;3.22;2.80;;;17.80;99.90;;;;;;5030923;28;20401;-64
2023/06/06 03:03:56;;;;;;;3.53;3.20;;;17.90;99.90;;;;;;5030323;28;20069;-68
2023/06/06 03:06:22;;;;;;;3.60;3.17;;;17.90;99.90;;;;;;5030322;28;20104;-69
2023/06/06 03:08:49;;;;;;;5.28;3.35;;;17.90;99.90;;;;;;5020883;28;20029;-68
2023/06/06 03:11:16;;;;;;;3.53;3.22;;;17.90;99.90;;;;;;5028158;28;20118;-68
2023/06/06 03:13:45;;;;;;;4.55;3.40;;;17.90;99.90;;;;;;5026214;28;20213;-69
2023/06/06 03:16:13;;;;;;;4.05;3.00;;;17.90;99.90;;;;;;5027457;28;20013;-69
2023/06/06 03:18:39;;;;;;;3.72;2.90;;;17.90;99.90;;;;;;5029634;28;20132;-69
2023/06/06 03:21:05;;;;;;;3.70;2.95;;;17.90;99.90;;;;;;5030868;28;20082;-69
2023/06/06 03:23:30;;;;;;;3.53;2.97;;;17.90;99.90;;;;;;5029141;28;20217;-69
2023/06/06 03:25:56;;;;;;;4.57;2.88;;;17.90;99.90;;;;;;5028461;28;20037;-69
2023/06/06 03:28:22;;;;;;;2.83;2.58;;;18.00;99.90;;;;;;5032551;28;20052;-69
2023/06/06 03:30:47;;;;;;;3.83;2.95;;;17.90;99.90;;;;;;5024767;28;20029;-68
2023/06/06 03:33:14;;;;;;;3.20;2.90;;;17.90;99.90;;;;;;5029685;28;20571;-68
2023/06/06 03:35:40;;;;;;;5.38;3.83;;;17.90;99.90;;;;;;5025665;28;20065;-68
2023/06/06 03:38:06;;;;;;;3.38;2.78;;;18.00;99.90;;;;;;5030124;28;20524;-68
2023/06/06 03:40:31;;;;;;;4.32;3.30;;;18.00;99.90;;;;;;5021805;28;20194;-64
2023/06/06 03:42:57;;;;;;;3.20;2.90;;;18.00;99.90;;;;;;5028045;28;20033;-64
2023/06/06 03:45:23;;;;;;;2.72;2.53;;;18.00;99.90;;;;;;5025027;28;20116;-64
2023/06/06 03:47:49;;;;;;;3.50;2.95;;;18.00;99.90;;;;;;5020274;28;20155;-64
2023/06/06 03:50:15;;;;;;;3.10;2.90;;;18.00;99.90;;;;;;5029133;28;20067;-64
2023/06/06 03:52:42;;;;;;;3.58;3.00;;;18.00;99.90;;;;;;5026335;28;20128;-64
2023/06/06 03:55:09;;;;;;;3.75;3.03;;;18.00;99.90;;;;;;5028654;28;20041;-64
2023/06/06 03:57:35;;;;;;;4.45;4.00;;;18.10;99.90;;;;;;5023813;28;20095;-64
2023/06/06 04:00:04;;;;;;;5.40;4.18;;;18.10;99.90;;;;;;5026313;28;20029;-68
2023/06/06 04:02:31;;;;;;;3.45;3.15;;;18.00;99.90;;;;;;5025866;28;20076;-68
2023/06/06 04:05:01;;;;;;;5.57;3.30;;;18.10;99.90;;;;;;5015708;28;20511;-69
2023/06/06 04:07:28;;;;;;;3.65;3.35;;;18.00;99.90;;;;;;5027002;28;20037;-69
2023/06/06 04:09:54;;;;;;;7.18;3.42;;;18.00;99.90;;;;;;5017504;28;20442;-67
2023/06/06 04:12:21;;;;;;;6.10;4.35;;;18.00;99.90;;;;;;5017320;28;20135;-67
2023/06/06 04:14:47;;;;;;;4.85;4.40;;;18.00;99.90;;;;;;5026907;28;20033;-68
2023/06/06 04:17:13;;;;;;;5.55;4.10;;;17.90;99.90;;;;;;5016728;28;20064;-67
2023/06/06 04:19:39;;;;;;;5.15;4.15;;;17.80;99.90;;;;;;5026642;28;20069;-64
2023/06/06 04:22:05;;;;;;;4.05;3.65;;;17.80;99.90;;;;;;5022217;28;21821;-65
2023/06/06 04:24:31;;;;;;;3.35;2.80;;;17.90;99.90;;;;;;5027084;28;20121;-65
2023/06/06 04:27:03;;;;;;;5.00;2.92;;;17.90;99.90;;;;;;5023913;28;20025;-64
2023/06/06 04:29:32;;;;;;;3.38;3.08;;;17.90;99.90;;;;;;5033760;28;20433;-65
2023/06/06 04:31:59;;;;;;;3.60;3.10;;;17.90;99.90;;;;;;5030734;28;20493;-65
2023/06/06 04:34:28;;;;;;;5.88;3.10;;;17.90;99.90;;;;;;5031782;28;20191;-65
2023/06/06 04:36:56;;;;;;;5.18;3.38;;;17.90;99.90;;;;;;5024472;28;20021;-65
2023/06/06 04:39:23;;;;;;;10.25;3.67;;;17.90;99.90;;;;;;5024589;28;20124;-67
2023/06/06 04:41:50;;;;;;;6.85;3.65;;;17.90;99.90;;;;;;5028052;28;20498;-68
2023/06/06 04:44:17;;;;;;;6.60;3.47;;;18.00;99.90;;;;;;5043095;28;20794;-68
2023/06/06 04:46:43;;;;;;;15.65;4.53;;;18.00;99.90;;;;;;5026772;28;20082;-68
2023/06/06 04:49:09;;;;;;;10.48;4.18;;;18.00;99.90;;;;;;5028606;28;20154;-69
2023/06/06 04:51:37;;;;;;;18.13;4.57;;;18.00;99.90;;;;;;5028909;28;20477;-67
2023/06/06 04:54:08;;;;;;;6.10;3.72;;;18.00;99.90;;;;;;5029219;28;20681;-67
2023/06/06 04:56:34;;;;;;;3.78;3.47;;;18.00;99.90;;;;;;5029292;28;20116;-68
2023/06/06 04:59:06;;;;;;;4.20;3.78;;;18.00;99.90;;;;;;5022369;28;20140;-69
2023/06/06 05:01:36;;;;;;;5.55;3.42;;;18.00;99.90;;;;;;5021829;28;20040;-69
2023/06/06 05:04:05;;;;;;;6.97;3.92;;;18.00;99.90;;;;;;5028121;28;20033;-70
2023/06/06 05:06:33;;;;;;;5.32;3.35;;;18.00;99.90;;;;;;5030735;28;20029;-68
2023/06/06 05:09:07;;;;;;;10.20;3.58;;;18.00;99.90;;;;;;5029202;28;20148;-68
2023/06/06 05:11:33;;;;;;;4.65;3.40;;;18.00;99.90;;;;;;5009856;28;20546;-68
2023/06/06 05:13:59;;;;;;;5.93;4.72;;;18.10;99.90;;;;;;5021550;28;20478;-68
2023/06/06 05:16:25;;;;;;;6.47;3.60;;;18.10;99.90;;;;;;5027213;28;20028;-69
2023/06/06 05:18:50;;;;;;;8.77;4.00;;;18.10;99.90;;;;;;5028342;28;20151;-65
2023/06/06 05:21:17;;;;;;;5.47;3.80;;;18.10;99.90;;;;;;5026511;28;20167;-68
2023/06/06 05:23:43;;;;;;;4.38;3.45;;;18.10;99.90;;;;;;5026826;28;20033;-69
2023/06/06 05:26:09;;;;;;;5.85;3.53;;;18.20;99.90;;;;;;5023574;28;20037;-69
2023/06/06 05:28:36;;;;;;;5.05;3.55;;;18.10;99.90;;;;;;5030622;28;20033;-68
2023/06/06 05:31:02;;;;;;;4.43;3.30;;;18.10;99.90;;;;;;5020639;28;20564;-69
2023/06/06 05:33:30;;;;;;;5.90;3.55;;;18.10;99.90;;;;;;5032547;28;20091;-69
2023/06/06 05:35:56;;;;;;;3.78;3.42;;;18.20;99.90;;;;;;5029681;28;20047;-65
2023/06/06 05:38:23;;;;;;;4.32;3.95;;;18.20;99.90;;;;;;5027121;28;20500;-65
2023/06/06 05:40:49;;;;;;;5.00;3.90;;;18.20;99.90;;;;;;5021539;28;20531;-65
2023/06/06 05:43:15;;;;;;;4.38;3.38;;;18.20;99.90;;;;;;5030305;28;20068;-65
2023/06/06 05:45:41;;;;;;;6.90;3.83;;;18.20;99.90;;;;;;5025480;28;21034;-65
2023/06/06 05:48:07;;;;;;;8.95;4.20;;;18.20;99.90;;;;;;5027528;28;20082;-65
2023/06/06 05:50:32;;;;;;;6.43;4.07;;;18.30;99.90;;;;;;5023633;28;20033;-65
2023/06/06 05:52:58;;;;;;;4.30;3.50;;;18.30;99.90;;;;;;5017228;28;20311;-65
2023/06/06 05:55:32;;;;;;;4.07;3.65;;;18.30;99.90;;;;;;5014121;28;20037;-65
2023/06/06 05:57:59;;;;;;;4.40;3.67;;;18.30;99.90;;;;;;5026183;28;20039;-65
2023/06/06 06:00:26;;;;;;;7.20;3.40;;;18.30;99.90;;;;;;5027500;28;20036;-65
2023/06/06 06:02:55;;;;;;;4.85;3.67;;;18.20;99.90;;;;;;5031607;28;20045;-65
2023/06/06 06:05:28;;;;;;;4.55;3.67;;;18.20;99.90;;;;;;5030125;28;20036;-65
2023/06/06 06:08:01;;;;;;;4.50;3.45;;;18.20;99.90;;;;;;5025412;28;20481;-65
2023/06/06 06:10:28;;;;;;;4.65;3.45;;;18.20;99.90;;;;;;5028359;28;20116;-65
2023/06/06 06:12:55;;;;;;;6.22;3.80;;;18.20;99.90;;;;;;5028065;28;20475;-65
2023/06/06 06:15:21;;;;;;;5.22;4.32;;;18.20;99.90;;;;;;5032343;28;20037;-65
2023/06/06 06:17:47;;;;;;;4.13;3.50;;;18.20;99.90;;;;;;5024445;28;20091;-65
2023/06/06 06:20:15;;;;;;;5.63;3.97;;;18.20;99.90;;;;;;5029122;28;20037;-65
2023/06/06 06:22:41;;;;;;;5.68;3.97;;;18.20;99.90;;;;;;5028251;28;20060;-66
2023/06/06 06:25:13;;;;;;;7.40;4.45;;;18.20;99.90;;;;;;5029700;28;20028;-65
2023/06/06 06:27:40;;;;;;;4.63;3.78;;;18.30;99.90;;;;;;5020584;28;20057;-65
2023/06/06 06:30:06;;;;;;;3.97;3.60;;;18.20;99.90;;;;;;5029153;28;20038;-65
2023/06/06 06:32:33;;;;;;;4.78;3.88;;;18.20;99.90;;;;;;5003239;28;20489;-69
2023/06/06 06:35:00;;;;;;;4.47;4.07;;;18.20;99.90;;;;;;5024256;28;20387;-69
2023/06/06 06:37:26;;;;;;;4.00;3.60;;;18.20;99.90;;;;;;5017894;28;20860;-69
2023/06/06 06:39:52;;;;;;;5.13;4.25;;;18.10;99.90;;;;;;5016444;28;20048;-68
2023/06/06 06:42:17;;;;;;;5.40;3.60;;;18.10;99.90;;;;;;5018394;28;20036;-69
2023/06/06 06:44:43;;;;;;;3.53;3.22;;;18.10;99.90;;;;;;5024062;28;20266;-67
2023/06/06 06:47:08;;;;;;;6.10;3.80;;;18.20;99.90;;;;;;5026194;28;20762;-68
2023/06/06 06:49:34;;;;;;;4.32;3.50;;;18.20;99.90;;;;;;5024600;28;20152;-68
2023/06/06 06:52:00;;;;;;;3.65;3.35;;;18.10;99.90;;;;;;5024416;28;20054;-68
2023/06/06 06:54:26;;;;;;;4.95;3.40;;;18.10;99.90;;;;;;5026543;28;20087;-68
2023/06/06 06:56:53;;;;;;;4.07;3.78;;;18.20;99.90;;;;;;5026180;28;20044;-68
2023/06/06 06:59:20;;;;;;;3.92;3.58;;;18.20;99.90;;;;;;5022910;28;20086;-68
2023/06/06 07:01:49;;;;;;;3.78;3.47;;;18.30;99.90;;;;;;5029543;28;20384;-68
2023/06/06 07:04:17;;;;;;;3.60;3.30;;;18.30;99.90;;;;;;5026827;28;20039;-68
2023/06/06 07:06:44;;;;;;;3.50;3.17;;;18.30;99.90;;;;;;5028660;28;20551;-68
2023/06/06 07:09:11;;;;;;;4.93;3.80;;;18.20;99.90;;;;;;5025542;28;20115;-68
2023/06/06 07:11:36;;;;;;;4.30;3.75;;;18.20;99.90;;;;;;5029425;28;20505;-68
2023/06/06 07:14:03;;;;;;;3.72;3.42;;;18.10;99.90;;;;;;5023092;28;20049;-67
2023/06/06 07:16:31;;;;;;;5.18;3.88;;;18.20;99.90;;;;;;5028616;28;20041;-67
2023/06/06 07:18:56;;;;;;;4.38;3.75;;;18.20;99.90;;;;;;5028202;28;20040;-67
2023/06/06 07:21:22;;;;;;;5.03;3.95;;;18.20;99.90;;;;;;5016671;28;20581;-68
2023/06/06 07:23:50;;;;;;;6.28;4.30;;;18.20;99.90;;;;;;5029623;28;20497;-67
2023/06/06 07:26:19;;;;;;;5.00;3.85;;;18.20;99.90;;;;;;5019909;28;20044;-68
2023/06/06 07:28:46;;;;;;;4.55;4.05;;;18.20;99.90;;;;;;5020087;28;20021;-68
2023/06/06 07:31:14;;;;;;;7.43;4.35;;;18.10;99.90;;;;;;5024050;28;20037;-64
2023/06/06 07:33:40;;;;;;;4.32;3.90;;;18.20;99.90;;;;;;5019138;28;20036;-64
2023/06/06 07:36:09;;;;;;;4.70;4.28;;;18.20;99.90;;;;;;5014129;28;20029;-64
2023/06/06 07:38:35;;;;;;;5.60;4.20;;;18.30;99.90;;;;;;5024889;28;20034;-65
2023/06/06 07:41:01;;;;;;;5.72;4.10;;;18.30;99.90;;;;;;5027767;28;20394;-65
2023/06/06 07:43:26;;;;;;;4.40;4.00;;;18.40;99.90;;;;;;5029142;28;20033;-64
2023/06/06 07:45:52;;;;;;;4.40;3.78;;;18.40;99.90;;;;;;5026860;28;20251;-64
2023/06/06 07:48:18;;;;;;;4.50;3.70;;;18.40;99.90;;;;;;5023874;28;20490;-65
2023/06/06 07:50:44;;;;;;;4.50;3.70;;;18.40;99.90;;;;;;5026964;28;20037;-65
2023/06/06 07:53:10;;;;;;;5.28;3.78;;;18.50;99.90;;;;;;5025592;28;20024;-65
2023/06/06 07:55:37;;;;;;;4.22;3.83;;;18.50;99.90;;;;;;5025099;28;20536;-65
2023/06/06 07:58:06;;;;;;;4.38;3.97;;;18.50;99.90;;;;;;5033003;28;20166;-64
2023/06/06 08:00:31;;;;;;;5.22;4.72;;;18.50;99.90;;;;;;5026246;28;20526;-64
2023/06/06 08:02:57;;;;;;;4.85;3.78;;;18.50;99.90;;;;;;5030750;28;20123;-64
2023/06/06 08:05:23;;;;;;;3.95;3.53;;;18.60;99.90;;;;;;5031689;28;20032;-64
2023/06/06 08:07:48;;;;;;;4.15;3.75;;;18.60;99.90;;;;;;5027777;28;20061;-68
2023/06/06 08:10:14;;;;;;;4.35;3.95;;;18.50;99.90;;;;;;5033269;28;20048;-68
2023/06/06 08:12:39;;;;;;;4.82;4.43;;;18.50;99.90;;;;;;5026994;28;20061;-68
2023/06/06 08:15:06;;;;;;;4.45;3.80;;;18.40;99.90;;;;;;5031396;28;20043;-68
2023/06/06 08:17:32;;;;;;;4.60;4.20;;;18.40;99.90;;;;;;5031124;28;20108;-68
2023/06/06 08:19:58;;;;;;;4.68;4.25;;;18.40;99.90;;;;;;5029208;28;20489;-68
2023/06/06 08:22:24;;;;;;;4.63;4.22;;;18.40;99.90;;;;;;5017203;28;20025;-68
2023/06/06 08:24:50;;;;;;;4.40;4.00;;;18.50;99.90;;;;;;5023718;28;20047;-65
2023/06/06 08:27:17;;;;;;;5.47;4.97;;;18.50;99.90;;;;;;5032268;28;20363;-65
2023/06/06 08:29:43;;;;;;;4.95;4.45;;;18.50;99.90;;;;;;5033730;28;20164;-65
2023/06/06 08:32:08;;;;;;;4.57;4.18;;;18.50;99.90;;;;;;5024566;28;20334;-65
2023/06/06 08:34:34;;;;;;;6.68;4.75;;;18.50;99.90;;;;;;5026729;28;20045;-65
2023/06/06 08:37:00;;;;;;;5.10;4.55;;;18.50;99.90;;;;;;5029538;28;20029;-65
2023/06/06 08:39:26;;;;;;;5.10;4.50;;;18.50;99.90;;;;;;5031967;28;20021;-65
2023/06/06 08:41:53;;;;;;;4.70;4.30;;;18.50;99.90;;;;;;5021835;28;20662;-65
2023/06/06 08:44:21;;;;;;;4.95;4.45;;;18.40;99.90;;;;;;5020455;28;20044;-65
2023/06/06 08:46:49;;;;;;;4.60;4.20;;;18.30;99.90;;;;;;5029541;28;20064;-64
2023/06/06 08:49:18;;;;;;;5.18;4.45;;;18.40;99.90;;;;;;5020556;28;20622;-65
2023/06/06 08:51:45;;;;;;;4.85;4.28;;;18.40;99.90;;;;;;5032491;28;20009;-64
2023/06/06 08:54:10;;;;;;;5.50;4.47;;;18.40;99.90;;;;;;5030924;28;20101;-64
2023/06/06 08:56:38;;;;;;;4.55;4.25;;;18.40;99.90;;;;;;5030960;28;20047;-64
2023/06/06 08:59:04;;;;;;;5.93;4.53;;;18.40;99.90;;;;;;5023034;28;20108;-65
2023/06/06 09:01:30;;;;;;;4.68;4.25;;;18.40;99.90;;;;;;5032388;28;20097;-65
2023/06/06 09:03:58;;;;;;;5.65;4.57;;;18.30;99.90;;;;;;5031668;28;20045;-64
2023/06/06 09:06:23;;;;;;;4.70;4.30;;;18.20;99.90;;;;;;5035718;28;20040;-65
2023/06/06 09:08:49;;;;;;;4.90;4.47;;;18.20;99.90;;;;;;5029971;28;20076;-64
2023/06/06 09:11:17;;;;;;;5.18;3.92;;;18.20;99.90;;;;;;5029846;28;20415;-64
2023/06/06 09:13:44;;;;;;;5.55;4.75;;;18.20;99.90;;;;;;5029472;28;20397;-64
2023/06/06 09:16:10;;;;;;;5.88;4.38;;;18.20;99.90;;;;;;5034544;28;20496;-64
2023/06/06 09:18:35;;;;;;;4.82;4.32;;;18.20;99.90;;;;;;5033065;28;20537;-64
2023/06/06 09:21:02;;;;;;;5.45;4.82;;;18.20;99.90;;;;;;5036596;28;20932;-64
2023/06/06 09:23:31;;;;;;;7.07;4.57;;;18.10;99.90;;;;;;5032315;28;20073;-64
2023/06/06 09:25:57;;;;;;;6.80;4.55;;;18.20;99.90;;;;;;5035985;28;21183;-64
2023/06/06 09:28:40;;;;;;;5.28;4.47;;;18.20;99.90;;;;;;5033816;28;20481;-64
2023/06/06 09:31:29;;;;;;;4.53;4.13;;;18.20;99.90;;;;;;5031519;28;20021;-64
2023/06/06 09:33:56;;;;;;;4.97;4.53;;;18.20;99.90;;;;;;5027622;28;20094;-64
2023/06/06 09:36:25;;;;;;;6.43;4.30;;;18.20;99.90;;;;;;5032328;28;20013;-63
2023/06/06 09:38:52;;;;;;;4.78;4.28;;;18.20;99.90;;;;;;5026250;28;20025;-64
2023/06/06 09:41:18;;;;;;;5.03;4.53;;;18.20;99.90;;;;;;5026754;28;20033;-64
2023/06/06 09:43:43;;;;;;;5.13;4.63;;;18.20;99.90;;;;;;5028608;28;20170;-64
2023/06/06 09:46:14;;;;;;;6.47;4.60;;;18.20;99.90;;;;;;5023305;28;20028;-64
2023/06/06 09:48:40;;;;;;;4.85;4.45;;;18.10;99.90;;;;;;5027029;28;20041;-63
2023/06/06 09:51:08;;;;;;;5.28;4.80;;;18.10;99.90;;;;;;5034460;28;20022;-63
2023/06/06 09:53:36;;;;;;;6.03;4.18;;;18.10;99.90;;;;;;5032738;28;20323;-63
2023/06/06 09:56:06;;;;;;;6.60;4.97;;;18.20;99.90;;;;;;5033601;28;20457;-63
2023/06/06 09:58:35;;;;;;;6.28;4.65;;;18.20;99.90;;;;;;5031580;28;20045;-63
2023/06/06 10:01:01;;;;;;;7.43;5.03;;;18.20;99.90;;;;;;5032835;28;20545;-63
2023/06/06 10:03:30;;;;;;;5.90;4.57;;;18.20;99.90;;;;;;5028017;28;20052;-68
2023/06/06 10:05:56;;;;;;;4.97;4.47;;;18.20;99.90;;;;;;5026527;28;20053;-68
2023/06/06 10:08:23;;;;;;;6.63;4.68;;;18.20;99.90;;;;;;5034859;28;20025;-68
2023/06/06 10:10:50;;;;;;;5.45;4.65;;;18.20;99.90;;;;;;5029073;28;20032;-69
2023/06/06 10:13:22;;;;;;;5.07;4.05;;;18.20;99.90;;;;;;5032801;28;20565;-68
2023/06/06 10:15:48;;;;;;;;;;;18.20;99.90;;;;;;5033599;28;20239;-67
2023/06/06 10:18:15;;;;;;;3.63;3.10;;;18.20;99.90;;;;;;5032930;28;19959;-68
2023/06/06 10:20:41;;;;;;;3.25;2.85;;;18.20;99.90;;;;;;5027101;28;20043;-64
2023/06/06 10:23:06;;;;;;;6.53;3.45;;;18.20;99.90;;;;;;5024689;28;20509;-64
2023/06/06 10:25:34;;;;;;;4.85;3.05;;;18.20;99.90;;;;;;5032693;28;20580;-64
2023/06/06 10:28:05;;;;;;;7.43;2.90;;;18.20;99.90;;;;;;5031362;28;20740;-64
2023/06/06 10:30:42;;;;;;;5.30;3.00;;;18.20;99.90;;;;;;5032550;28;20263;-64
2023/06/06 10:33:23;;;;;;;5.97;3.03;;;18.20;99.90;;;;;;5029537;28;20516;-64
2023/06/06 10:35:53;;;;;;;4.10;3.00;;;18.20;99.90;;;;;;5031725;28;20537;-64
2023/06/06 10:38:19;;;;;;;3.67;2.60;;;18.20;99.90;;;;;;5029331;28;20025;-64
2023/06/06 10:40:53;;;;;;;4.30;2.42;;;18.10;99.90;;;;;;5031259;28;20460;-64
2023/06/06 10:43:33;;;;;;;3.90;2.05;;;18.10;99.90;;;;;;5021393;28;20310;-64
2023/06/06 10:46:00;;;;;;;8.18;2.50;;;18.00;99.90;;;;;;5031929;28;20033;-64
2023/06/06 10:48:45;;;;;;;4.30;2.55;;;18.00;99.90;;;;;;5029047;28;20533;-64
2023/06/06 10:51:23;;;;;;;2.30;2.10;;;18.00;99.90;;;;;;5027293;28;20738;-64
2023/06/06 10:54:21;;;;;;;4.53;1.85;;;18.00;99.90;;;;;;5024459;28;20031;-64
2023/06/06 10:56:54;;;;;;;3.60;1.77;;;18.10;99.90;;;;;;5023649;28;20604;-64
2023/06/06 10:59:24;;;;;;;3.22;1.80;;;18.20;99.90;;;;;;5027093;28;20025;-68
2023/06/06 11:01:49;;;;;;;1.90;1.80;;;18.30;99.90;;;;;;5029216;28;20025;-68
2023/06/06 11:04:23;;;;;;;4.13;1.88;;;18.30;99.90;;;;;;5025659;28;20061;-68
2023/06/06 11:06:52;;;;;;;1.52;1.42;;;18.40;99.90;;;;;;5029985;28;20033;-68
2023/06/06 11:09:22;;;;;;;1.23;1.13;;;18.50;99.90;;;;;;5027130;28;20331;-68
2023/06/06 11:11:50;;;;;;;1.05;1.05;;;18.50;99.90;;;;;;5026947;28;20674;-68
2023/06/06 11:14:21;;;;;;;2.25;1.25;;;18.50;99.90;;;;;;5029194;28;20501;-68
2023/06/06 11:16:47;;;;;;;1.23;0.73;;;18.50;99.90;;;;;;5026332;28;20029;-68
2023/06/06 11:19:18;;;;;;;2.90;0.90;;;18.50;99.90;;;;;;5027965;28;20435;-64
2023/06/06 11:21:45;;;;;;;1.35;1.25;;;18.60;99.90;;;;;;5028349;28;20113;-63
2023/06/06 11:24:13;;;;;;;1.05;0.80;;;18.80;99.90;;;;;;5026733;28;20032;-64
2023/06/06 11:26:40;;;;;;;0.70;0.70;;;18.90;99.90;;;;;;5023293;28;20085;-64
2023/06/06 11:29:10;;;;;;;2.00;0.80;;;19.00;99.90;;;;;;5023055;28;20127;-63
2023/06/06 11:31:37;;;;;;;0.57;0.57;;;19.00;99.90;;;;;;5032766;28;20036;-64
2023/06/06 11:34:08;;;;;;;1.02;0.82;;;19.00;99.90;;;;;;5028118;28;20090;-64
2023/06/06 11:36:34;;;;;;;0.50;0.50;;;19.00;99.90;;;;;;5014670;28;20048;-63
2023/06/06 12:40:14;;;;;;;2.65;2.30;;;18.90;99.90;;;;;;5220344;23;22878;-66
2023/06/06 12:42:40;;;;;;;2.70;2.50;;;18.90;99.90;;;;;;4921697;28;20290;-67
2023/06/06 12:45:07;;;;;;;3.03;2.30;;;18.90;99.90;;;;;;4936920;28;20101;-68
2023/06/06 12:47:33;;;;;;;2.40;2.20;;;18.90;99.90;;;;;;4931704;28;20032;-68
2023/06/06 12:50:00;;;;;;;3.05;2.70;;;19.00;99.90;;;;;;4937428;28;20034;-68
2023/06/06 12:52:26;;;;;;;2.83;2.25;;;18.90;99.90;;;;;;4935300;28;20030;-67
2023/06/06 12:54:52;;;;;;;3.08;2.75;;;18.90;99.90;;;;;;4936923;28;20035;-68
2023/06/06 12:57:18;;;;;;;4.50;3.05;;;18.80;99.90;;;;;;4924956;28;20027;-68
2023/06/06 12:59:44;;;;;;;5.90;4.25;;;18.50;99.90;;;;;;4936085;28;20034;-68
2023/06/06 13:02:11;;;;;;;2.97;2.55;;;18.40;99.90;;;;;;4937882;28;20394;-67
2023/06/06 13:04:38;;;;;;;2.95;2.65;;;18.30;99.90;;;;;;4937203;28;20115;-68
2023/06/06 13:07:08;;;;;;;2.45;2.30;;;18.20;99.90;;;;;;4941234;28;20038;-67
2023/06/06 13:09:37;;;;;;;2.53;2.30;;;18.30;99.90;;;;;;4940972;28;20054;-67
2023/06/06 13:12:07;;;;;;;2.40;2.15;;;18.20;99.90;;;;;;4935353;28;20279;-67
2023/06/06 13:14:36;;;;;;;2.60;2.30;;;18.20;99.90;;;;;;4941382;28;20117;-68
2023/06/06 13:17:02;;;;;;;2.78;2.22;;;18.30;99.90;;;;;;4938173;28;20028;-68
2023/06/06 13:19:28;;;;;;;2.70;2.50;;;18.40;99.90;;;;;;4942604;28;20114;-68
2023/06/06 13:21:54;;;;;;;4.05;3.65;;;18.50;99.90;;;;;;4938487;28;20038;-67
2023/06/06 13:24:19;;;;;;;3.38;2.50;;;18.50;99.90;;;;;;4937174;28;20035;-67
2023/06/06 13:26:45;;;;;;;11.48;10.23;;;18.60;99.90;;;;;;4929851;28;20030;-67
2023/06/06 13:29:12;;;;;;;9.25;8.40;;;18.70;99.90;;;;;;4931144;28;20042;-66
2023/06/06 13:31:39;;;;;;;5.60;5.10;;;18.70;99.90;;;;;;4936317;28;20751;-68
2023/06/06 13:34:05;;;;;;;3.90;2.85;;;18.70;99.90;;;;;;4922158;28;20530;-68
2023/06/06 13:36:31;;;;;;;7.57;6.88;;;18.80;99.90;;;;;;4937827;28;20031;-67
2023/06/06 13:38:57;;;;;;;5.13;3.22;;;18.80;99.90;;;;;;4921608;28;20042;-68
2023/06/06 13:41:23;;;;;;;3.45;2.92;;;18.80;99.90;;;;;;4929714;28;20063;-68
2023/06/06 13:43:48;;;;;;;3.17;2.97;;;18.80;99.90;;;;;;4938775;28;20491;-68
2023/06/06 13:46:14;;;;;;;3.03;2.78;;;18.80;99.90;;;;;;4937819;28;20553;-68
2023/06/06 13:48:40;;;;;;;3.45;3.05;;;18.70;99.90;;;;;;4935294;28;20793;-67
2023/06/06 13:51:06;;;;;;;3.45;3.13;;;18.80;99.90;;;;;;4934470;28;20075;-66